Gaillard Crossroads, South Carolina
Current Conditions -  °F | °C
As of 12:33 AM on Wednesday 26 Nov 2014 (Local Time) from KSSC Reporting Station
Moderate Rain Moderate Rain  
Wind Chill: 59°   Ceiling: 2000
Heat Index: 59°   Visibility: 6mi
Dew Point: 55°   Wind: 9mph
Humidity: 88%   Direction: 350°N
Pressure: 29.89"   Gusts: NA
Location:  34.0134°N, 80.5102°W
Report Text: KSSC 260533Z AUTO 35008KT 6SM R04/5000FT RA BR SCT009 BKN020 15/13 A2989 RMK AO2 CIG 017V029 $
Loading
Personal Weather Stations






























Interactive Weather Map New forecast layout! Learn more

10-Day Weather Forecast

Advertisements
Track Severe Weather on mobile